sensor_id;sensor_type;location;lat;lon;timestamp;pressure;altitude;pressure_sealevel;temperature;humidity
79236;BME280;69062;47.460;18.812;2023-08-20T00:00:36;100515.50;;;27.61;57.60
79236;BME280;69062;47.460;18.812;2023-08-20T00:01:39;100519.25;;;27.60;57.43
79236;BME280;69062;47.460;18.812;2023-08-20T00:02:43;100507.56;;;27.60;57.32
79236;BME280;69062;47.460;18.812;2023-08-20T00:03:50;100512.97;;;27.60;57.00
79236;BME280;69062;47.460;18.812;2023-08-20T00:04:56;100517.53;;;27.59;57.83
79236;BME280;69062;47.460;18.812;2023-08-20T00:06:00;100510.44;;;27.58;57.77
79236;BME280;69062;47.460;18.812;2023-08-20T00:07:03;100509.59;;;27.58;57.19
79236;BME280;69062;47.460;18.812;2023-08-20T00:08:06;100509.59;;;27.58;57.60
79236;BME280;69062;47.460;18.812;2023-08-20T00:09:09;100515.00;;;27.58;57.72
79236;BME280;69062;47.460;18.812;2023-08-20T00:10:11;100508.75;;;27.57;57.02
79236;BME280;69062;47.460;18.812;2023-08-20T00:11:15;100508.75;;;27.57;57.44
79236;BME280;69062;47.460;18.812;2023-08-20T00:12:18;100508.91;;;27.56;57.41
79236;BME280;69062;47.460;18.812;2023-08-20T00:13:20;100512.47;;;27.56;57.45
79236;BME280;69062;47.460;18.812;2023-08-20T00:14:53;100510.78;;;27.55;57.57
79236;BME280;69062;47.460;18.812;2023-08-20T00:16:01;100507.06;;;27.56;57.28
79236;BME280;69062;47.460;18.812;2023-08-20T00:17:04;100508.06;;;27.55;57.83
79236;BME280;69062;47.460;18.812;2023-08-20T00:18:08;100509.94;;;27.55;57.23
79236;BME280;69062;47.460;18.812;2023-08-20T00:19:11;100507.41;;;27.53;57.72
79236;BME280;69062;47.460;18.812;2023-08-20T00:20:14;100500.28;;;27.52;57.73
79236;BME280;69062;47.460;18.812;2023-08-20T00:21:17;100510.13;;;27.53;58.03
79236;BME280;69062;47.460;18.812;2023-08-20T00:22:24;100510.28;;;27.52;57.99
79236;BME280;69062;47.460;18.812;2023-08-20T00:23:27;100504.00;;;27.51;57.40
79236;BME280;69062;47.460;18.812;2023-08-20T00:24:30;100507.56;;;27.52;57.54
79236;BME280;69062;47.460;18.812;2023-08-20T00:25:33;100503.34;;;27.49;57.49
79236;BME280;69062;47.460;18.812;2023-08-20T00:26:36;100509.44;;;27.51;57.88
79236;BME280;69062;47.460;18.812;2023-08-20T00:27:40;100506.91;;;27.49;57.56
79236;BME280;69062;47.460;18.812;2023-08-20T00:28:44;100502.31;;;27.50;57.68
79236;BME280;69062;47.460;18.812;2023-08-20T00:29:47;100499.78;;;27.48;57.60
79236;BME280;69062;47.460;18.812;2023-08-20T00:30:50;100497.09;;;27.48;58.06
79236;BME280;69062;47.460;18.812;2023-08-20T00:31:52;100498.13;;;27.47;57.05
79236;BME280;69062;47.460;18.812;2023-08-20T00:32:55;100498.97;;;27.48;57.77
79236;BME280;69062;47.460;18.812;2023-08-20T00:33:58;100497.28;;;27.47;57.16
79236;BME280;69062;47.460;18.812;2023-08-20T00:35:08;100508.13;;;27.47;57.18
79236;BME280;69062;47.460;18.812;2023-08-20T00:36:12;100497.28;;;27.47;57.46
79236;BME280;69062;47.460;18.812;2023-08-20T00:37:14;100491.00;;;27.46;57.85
79236;BME280;69062;47.460;18.812;2023-08-20T00:38:17;100490.16;;;27.46;57.88
79236;BME280;69062;47.460;18.812;2023-08-20T00:39:20;100495.59;;;27.46;57.78
79236;BME280;69062;47.460;18.812;2023-08-20T00:40:23;100493.03;;;27.44;57.18
79236;BME280;69062;47.460;18.812;2023-08-20T00:41:25;100491.16;;;27.45;57.82
79236;BME280;69062;47.460;18.812;2023-08-20T00:42:28;100493.03;;;27.44;56.87
79236;BME280;69062;47.460;18.812;2023-08-20T00:43:32;100490.50;;;27.43;57.80
79236;BME280;69062;47.460;18.812;2023-08-20T00:44:35;100492.19;;;27.44;57.79
79236;BME280;69062;47.460;18.812;2023-08-20T00:45:40;100496.75;;;27.43;57.29
79236;BME280;69062;47.460;18.812;2023-08-20T00:46:44;100491.53;;;27.42;57.31
79236;BME280;69062;47.460;18.812;2023-08-20T00:47:48;100491.34;;;27.43;57.79
79236;BME280;69062;47.460;18.812;2023-08-20T00:48:51;100496.09;;;27.41;57.16
79236;BME280;69062;47.460;18.812;2023-08-20T00:49:56;100500.50;;;27.42;57.42
79236;BME280;69062;47.460;18.812;2023-08-20T00:50:59;100487.97;;;27.41;57.55
79236;BME280;69062;47.460;18.812;2023-08-20T00:52:02;100490.69;;;27.41;57.42
79236;BME280;69062;47.460;18.812;2023-08-20T00:53:07;100491.69;;;27.40;57.75
79236;BME280;69062;47.460;18.812;2023-08-20T00:54:10;100496.28;;;27.40;57.82
79236;BME280;69062;47.460;18.812;2023-08-20T00:55:14;100495.44;;;27.39;57.94
79236;BME280;69062;47.460;18.812;2023-08-20T00:56:17;100498.16;;;27.39;57.84
79236;BME280;69062;47.460;18.812;2023-08-20T00:57:22;100500.88;;;27.39;57.34
79236;BME280;69062;47.460;18.812;2023-08-20T00:58:25;100507.31;;;27.38;57.97
79236;BME280;69062;47.460;18.812;2023-08-20T00:59:32;100499.34;;;27.37;57.79
79236;BME280;69062;47.460;18.812;2023-08-20T01:00:35;100508.31;;;27.37;58.01
79236;BME280;69062;47.460;18.812;2023-08-20T01:01:38;100512.91;;;27.37;57.75
79236;BME280;69062;47.460;18.812;2023-08-20T01:02:40;100505.78;;;27.36;57.55
79236;BME280;69062;47.460;18.812;2023-08-20T01:03:45;100509.34;;;27.36;57.38
79236;BME280;69062;47.460;18.812;2023-08-20T01:04:48;100506.63;;;27.36;57.30
79236;BME280;69062;47.460;18.812;2023-08-20T01:06:02;100508.50;;;27.36;57.68
79236;BME280;69062;47.460;18.812;2023-08-20T01:07:30;100510.38;;;27.35;57.43
79236;BME280;69062;47.460;18.812;2023-08-20T01:08:40;100518.50;;;27.35;57.62
79236;BME280;69062;47.460;18.812;2023-08-20T01:10:08;100502.41;;;27.34;57.88
79236;BME280;69062;47.460;18.812;2023-08-20T01:11:21;100511.41;;;27.34;57.80
79236;BME280;69062;47.460;18.812;2023-08-20T01:12:28;100510.56;;;27.34;57.51
79236;BME280;69062;47.460;18.812;2023-08-20T01:13:31;100521.59;;;27.32;57.20
79236;BME280;69062;47.460;18.812;2023-08-20T01:14:34;100524.31;;;27.32;57.93
79236;BME280;69062;47.460;18.812;2023-08-20T01:15:37;100511.56;;;27.33;57.59
79236;BME280;69062;47.460;18.812;2023-08-20T01:16:40;100517.00;;;27.33;57.33
79236;BME280;69062;47.460;18.812;2023-08-20T01:17:43;100518.88;;;27.32;57.69
79236;BME280;69062;47.460;18.812;2023-08-20T01:18:48;100519.06;;;27.31;57.43
79236;BME280;69062;47.460;18.812;2023-08-20T01:19:51;100516.16;;;27.32;57.85
79236;BME280;69062;47.460;18.812;2023-08-20T01:21:17;100517.19;;;27.31;57.42
79236;BME280;69062;47.460;18.812;2023-08-20T01:27:05;100521.78;;;27.31;57.70
79236;BME280;69062;47.460;18.812;2023-08-20T01:28:29;100516.50;;;27.29;57.56
79236;BME280;69062;47.460;18.812;2023-08-20T01:29:32;100525.47;;;27.30;57.68
79236;BME280;69062;47.460;18.812;2023-08-20T01:30:36;100533.63;;;27.30;57.63
79236;BME280;69062;47.460;18.812;2023-08-20T01:31:40;100520.22;;;27.28;57.57
79236;BME280;69062;47.460;18.812;2023-08-20T01:32:43;100525.66;;;27.28;57.40
79236;BME280;69062;47.460;18.812;2023-08-20T01:33:46;100523.78;;;27.29;58.18
79236;BME280;69062;47.460;18.812;2023-08-20T01:34:49;100520.22;;;27.28;57.38
79236;BME280;69062;47.460;18.812;2023-08-20T01:35:53;100518.53;;;27.27;57.15
79236;BME280;69062;47.460;18.812;2023-08-20T01:36:56;100520.22;;;27.28;58.04
79236;BME280;69062;47.460;18.812;2023-08-20T01:37:59;100518.53;;;27.27;57.59
79236;BME280;69062;47.460;18.812;2023-08-20T01:39:02;100526.88;;;27.26;57.37
79236;BME280;69062;47.460;18.812;2023-08-20T01:40:08;100523.97;;;27.27;57.82
79236;BME280;69062;47.460;18.812;2023-08-20T01:41:13;100519.56;;;27.26;57.85
79236;BME280;69062;47.460;18.812;2023-08-20T01:42:15;100526.88;;;27.26;57.31
79236;BME280;69062;47.460;18.812;2023-08-20T01:43:18;100520.59;;;27.25;57.26
79236;BME280;69062;47.460;18.812;2023-08-20T01:44:21;100518.91;;;27.24;57.25
79236;BME280;69062;47.460;18.812;2023-08-20T01:45:24;100519.75;;;27.25;57.67
79236;BME280;69062;47.460;18.812;2023-08-20T01:46:26;100522.47;;;27.25;57.36
79236;BME280;69062;47.460;18.812;2023-08-20T01:47:29;100521.63;;;27.24;57.74
79236;BME280;69062;47.460;18.812;2023-08-20T01:48:35;100516.34;;;27.23;57.32
79236;BME280;69062;47.460;18.812;2023-08-20T01:49:38;100519.06;;;27.23;57.76
79236;BME280;69062;47.460;18.812;2023-08-20T01:50:41;100516.34;;;27.23;57.27
79236;BME280;69062;47.460;18.812;2023-08-20T01:51:44;100512.78;;;27.22;57.69
79236;BME280;69062;47.460;18.812;2023-08-20T01:52:46;100511.94;;;27.21;57.98
79236;BME280;69062;47.460;18.812;2023-08-20T01:53:49;100518.22;;;27.22;57.77
79236;BME280;69062;47.460;18.812;2023-08-20T01:54:52;100513.81;;;27.21;57.60
79236;BME280;69062;47.460;18.812;2023-08-20T01:55:55;100517.38;;;27.21;57.65
79236;BME280;69062;47.460;18.812;2023-08-20T01:56:59;100514.00;;;27.19;57.37
79236;BME280;69062;47.460;18.812;2023-08-20T01:58:01;100517.56;;;27.20;57.72
79236;BME280;69062;47.460;18.812;2023-08-20T01:59:04;100512.13;;;27.20;57.27
79236;BME280;69062;47.460;18.812;2023-08-20T02:00:07;100516.06;;;27.17;57.41
79236;BME280;69062;47.460;18.812;2023-08-20T02:01:16;100507.91;;;27.17;57.14
79236;BME280;69062;47.460;18.812;2023-08-20T02:02:19;100516.72;;;27.19;57.73
79236;BME280;69062;47.460;18.812;2023-08-20T02:03:22;100518.75;;;27.17;57.60
79236;BME280;69062;47.460;18.812;2023-08-20T02:04:25;100517.91;;;27.17;57.60
79236;BME280;69062;47.460;18.812;2023-08-20T02:05:28;100515.19;;;27.17;57.73
79236;BME280;69062;47.460;18.812;2023-08-20T02:06:30;100516.19;;;27.16;57.93
79236;BME280;69062;47.460;18.812;2023-08-20T02:07:33;100517.91;;;27.17;57.68
79236;BME280;69062;47.460;18.812;2023-08-20T02:08:36;100516.19;;;27.16;57.71
79236;BME280;69062;47.460;18.812;2023-08-20T02:09:39;100523.50;;;27.15;57.31
79236;BME280;69062;47.460;18.812;2023-08-20T02:10:42;100519.94;;;27.15;57.75
79236;BME280;69062;47.460;18.812;2023-08-20T02:11:45;100512.81;;;27.14;57.55
79236;BME280;69062;47.460;18.812;2023-08-20T02:12:47;100517.22;;;27.15;57.82
79236;BME280;69062;47.460;18.812;2023-08-20T02:13:51;100515.53;;;27.14;57.78
79236;BME280;69062;47.460;18.812;2023-08-20T02:14:54;100511.13;;;27.13;57.90
79236;BME280;69062;47.460;18.812;2023-08-20T02:15:59;100513.84;;;27.13;57.78
79236;BME280;69062;47.460;18.812;2023-08-20T02:17:03;100514.69;;;27.13;57.35
79236;BME280;69062;47.460;18.812;2023-08-20T02:18:06;100514.88;;;27.12;57.71
79236;BME280;69062;47.460;18.812;2023-08-20T02:19:09;100510.28;;;27.12;58.01
79236;BME280;69062;47.460;18.812;2023-08-20T02:20:12;100514.03;;;27.11;57.54
79236;BME280;69062;47.460;18.812;2023-08-20T02:21:14;100514.03;;;27.11;58.05
79236;BME280;69062;47.460;18.812;2023-08-20T02:22:17;100503.19;;;27.11;57.11
79236;BME280;69062;47.460;18.812;2023-08-20T02:23:22;100508.59;;;27.11;56.96
79236;BME280;69062;47.460;18.812;2023-08-20T02:24:27;100513.19;;;27.11;57.43
79236;BME280;69062;47.460;18.812;2023-08-20T02:25:29;100508.78;;;27.10;57.53
79236;BME280;69062;47.460;18.812;2023-08-20T02:26:32;100508.78;;;27.10;57.64
79236;BME280;69062;47.460;18.812;2023-08-20T02:27:35;100515.06;;;27.10;57.79
79236;BME280;69062;47.460;18.812;2023-08-20T02:28:38;100506.22;;;27.08;57.50
79236;BME280;69062;47.460;18.812;2023-08-20T02:29:42;100503.50;;;27.08;57.69
79236;BME280;69062;47.460;18.812;2023-08-20T02:30:48;100515.19;;;27.09;57.49
79236;BME280;69062;47.460;18.812;2023-08-20T02:31:51;100508.09;;;27.08;57.93
79236;BME280;69062;47.460;18.812;2023-08-20T02:32:54;100511.66;;;27.08;57.63
79236;BME280;69062;47.460;18.812;2023-08-20T02:33:57;100506.22;;;27.08;57.72
79236;BME280;69062;47.460;18.812;2023-08-20T02:34:59;100504.72;;;27.06;57.79
79236;BME280;69062;47.460;18.812;2023-08-20T02:36:03;100502.84;;;27.06;57.80
79236;BME280;69062;47.460;18.812;2023-08-20T02:37:06;100503.88;;;27.05;58.02
79236;BME280;69062;47.460;18.812;2023-08-20T02:38:09;100504.72;;;27.06;58.29
79236;BME280;69062;47.460;18.812;2023-08-20T02:39:13;100503.88;;;27.05;58.19
79236;BME280;69062;47.460;18.812;2023-08-20T02:40:16;100505.88;;;27.03;57.67
79236;BME280;69062;47.460;18.812;2023-08-20T02:41:19;100504.91;;;27.04;57.79
79236;BME280;69062;47.460;18.812;2023-08-20T02:42:22;100504.03;;;27.04;57.79
79236;BME280;69062;47.460;18.812;2023-08-20T02:43:25;100502.19;;;27.04;57.83
79236;BME280;69062;47.460;18.812;2023-08-20T02:44:27;100502.34;;;27.03;57.51
79236;BME280;69062;47.460;18.812;2023-08-20T02:45:30;100512.16;;;27.04;57.89
79236;BME280;69062;47.460;18.812;2023-08-20T02:46:34;100509.63;;;27.02;57.94
79236;BME280;69062;47.460;18.812;2023-08-20T02:47:37;100513.19;;;27.03;57.84
79236;BME280;69062;47.460;18.812;2023-08-20T02:48:40;100509.63;;;27.02;57.72
79236;BME280;69062;47.460;18.812;2023-08-20T02:49:43;100516.91;;;27.02;58.08
79236;BME280;69062;47.460;18.812;2023-08-20T02:50:46;100511.50;;;27.02;57.70
79236;BME280;69062;47.460;18.812;2023-08-20T02:51:49;100511.66;;;27.00;57.25
79236;BME280;69062;47.460;18.812;2023-08-20T02:52:52;100517.91;;;27.01;57.62
79236;BME280;69062;47.460;18.812;2023-08-20T02:53:55;100513.50;;;27.00;57.57
79236;BME280;69062;47.460;18.812;2023-08-20T02:54:57;100511.81;;;26.99;58.01
79236;BME280;69062;47.460;18.812;2023-08-20T02:56:00;100516.22;;;27.00;58.16
79236;BME280;69062;47.460;18.812;2023-08-20T02:57:03;100513.69;;;26.98;58.07
79236;BME280;69062;47.460;18.812;2023-08-20T02:58:05;100512.66;;;26.99;57.96
79236;BME280;69062;47.460;18.812;2023-08-20T02:59:11;100508.28;;;26.98;57.97
79236;BME280;69062;47.460;18.812;2023-08-20T03:00:14;100509.28;;;26.97;58.00
79236;BME280;69062;47.460;18.812;2023-08-20T03:01:22;100503.03;;;26.97;57.97
79236;BME280;69062;47.460;18.812;2023-08-20T03:02:27;100500.31;;;26.97;58.08
79236;BME280;69062;47.460;18.812;2023-08-20T03:03:29;100503.88;;;26.97;57.81
79236;BME280;69062;47.460;18.812;2023-08-20T03:04:32;100506.56;;;26.97;58.28
79236;BME280;69062;47.460;18.812;2023-08-20T03:05:35;100504.91;;;26.96;58.03
79236;BME280;69062;47.460;18.812;2023-08-20T03:06:38;100500.31;;;26.97;57.99
79236;BME280;69062;47.460;18.812;2023-08-20T03:07:41;100500.50;;;26.95;58.47
79236;BME280;69062;47.460;18.812;2023-08-20T03:08:44;100505.91;;;26.95;57.92
79236;BME280;69062;47.460;18.812;2023-08-20T03:09:46;100506.06;;;26.93;58.05
79236;BME280;69062;47.460;18.812;2023-08-20T03:10:49;100501.50;;;26.94;58.35
79236;BME280;69062;47.460;18.812;2023-08-20T03:11:52;100508.78;;;26.93;58.13
79236;BME280;69062;47.460;18.812;2023-08-20T03:12:55;100505.06;;;26.94;58.26
79236;BME280;69062;47.460;18.812;2023-08-20T03:13:58;100510.66;;;26.93;58.29
79236;BME280;69062;47.460;18.812;2023-08-20T03:15:00;100507.94;;;26.93;58.63
79236;BME280;69062;47.460;18.812;2023-08-20T03:16:03;100509.81;;;26.92;58.05
79236;BME280;69062;47.460;18.812;2023-08-20T03:17:06;100504.38;;;26.92;57.85
79236;BME280;69062;47.460;18.812;2023-08-20T03:18:08;100507.09;;;26.92;57.95
79236;BME280;69062;47.460;18.812;2023-08-20T03:19:14;100511.84;;;26.90;58.40
79236;BME280;69062;47.460;18.812;2023-08-20T03:20:17;100508.97;;;26.92;58.25
79236;BME280;69062;47.460;18.812;2023-08-20T03:21:20;100513.53;;;26.91;58.55
79236;BME280;69062;47.460;18.812;2023-08-20T03:22:24;100519.97;;;26.90;58.37
79236;BME280;69062;47.460;18.812;2023-08-20T03:23:27;100522.69;;;26.90;58.72
79236;BME280;69062;47.460;18.812;2023-08-20T03:24:30;100522.69;;;26.90;58.11
79236;BME280;69062;47.460;18.812;2023-08-20T03:25:33;100523.72;;;26.89;58.25
79236;BME280;69062;47.460;18.812;2023-08-20T03:26:36;100521.84;;;26.90;58.79
79236;BME280;69062;47.460;18.812;2023-08-20T03:27:38;100531.84;;;26.89;58.13
79236;BME280;69062;47.460;18.812;2023-08-20T03:28:41;100526.44;;;26.89;58.11
79236;BME280;69062;47.460;18.812;2023-08-20T03:29:44;100530.16;;;26.88;58.04
79236;BME280;69062;47.460;18.812;2023-08-20T03:30:48;100528.47;;;26.87;58.49
79236;BME280;69062;47.460;18.812;2023-08-20T03:31:53;100528.47;;;26.87;58.24
79236;BME280;69062;47.460;18.812;2023-08-20T03:32:56;100521.19;;;26.88;57.97
79236;BME280;69062;47.460;18.812;2023-08-20T03:33:59;100527.59;;;26.87;57.96
79236;BME280;69062;47.460;18.812;2023-08-20T03:35:03;100526.75;;;26.86;58.20
79236;BME280;69062;47.460;18.812;2023-08-20T03:36:06;100526.75;;;26.86;57.96
79236;BME280;69062;47.460;18.812;2023-08-20T03:37:09;100529.47;;;26.86;58.28
79236;BME280;69062;47.460;18.812;2023-08-20T03:38:12;100533.19;;;26.85;58.02
79236;BME280;69062;47.460;18.812;2023-08-20T03:39:14;100535.91;;;26.85;58.20
79236;BME280;69062;47.460;18.812;2023-08-20T03:40:17;100535.91;;;26.85;58.35
79236;BME280;69062;47.460;18.812;2023-08-20T03:41:20;100535.91;;;26.85;58.06
79236;BME280;69062;47.460;18.812;2023-08-20T03:42:23;100542.34;;;26.84;57.70
79236;BME280;69062;47.460;18.812;2023-08-20T03:43:26;100542.34;;;26.84;58.06
79236;BME280;69062;47.460;18.812;2023-08-20T03:44:29;100536.25;;;26.82;58.10
79236;BME280;69062;47.460;18.812;2023-08-20T03:45:32;100541.69;;;26.82;58.12
79236;BME280;69062;47.460;18.812;2023-08-20T03:46:35;100541.69;;;26.82;58.02
79236;BME280;69062;47.460;18.812;2023-08-20T03:47:38;100540.84;;;26.82;58.23
79236;BME280;69062;47.460;18.812;2023-08-20T03:48:41;100550.84;;;26.81;58.35
79236;BME280;69062;47.460;18.812;2023-08-20T03:49:43;100540.84;;;26.82;58.12
79236;BME280;69062;47.460;18.812;2023-08-20T03:50:46;100547.28;;;26.81;58.20
79236;BME280;69062;47.460;18.812;2023-08-20T03:51:51;100551.88;;;26.80;58.14
79236;BME280;69062;47.460;18.812;2023-08-20T03:52:53;100549.16;;;26.80;58.68
79236;BME280;69062;47.460;18.812;2023-08-20T03:53:56;100541.16;;;26.79;58.33
79236;BME280;69062;47.460;18.812;2023-08-20T03:54:59;100543.88;;;26.79;58.74
79236;BME280;69062;47.460;18.812;2023-08-20T03:56:01;100546.59;;;26.79;58.28
79236;BME280;69062;47.460;18.812;2023-08-20T03:57:04;100551.16;;;26.78;58.59
79236;BME280;69062;47.460;18.812;2023-08-20T03:58:07;100556.59;;;26.78;58.44
79236;BME280;69062;47.460;18.812;2023-08-20T03:59:10;100556.78;;;26.77;58.42
79236;BME280;69062;47.460;18.812;2023-08-20T04:00:15;100545.09;;;26.76;58.53
79236;BME280;69062;47.460;18.812;2023-08-20T04:01:19;100550.50;;;26.76;58.65
79236;BME280;69062;47.460;18.812;2023-08-20T04:02:23;100544.25;;;26.76;58.62
79236;BME280;69062;47.460;18.812;2023-08-20T04:03:26;100538.81;;;26.76;58.60
79236;BME280;69062;47.460;18.812;2023-08-20T04:04:29;100543.38;;;26.75;58.55
79236;BME280;69062;47.460;18.812;2023-08-20T04:05:36;100539.84;;;26.75;58.36
79236;BME280;69062;47.460;18.812;2023-08-20T04:06:39;100538.16;;;26.74;58.70
79236;BME280;69062;47.460;18.812;2023-08-20T04:07:42;100544.41;;;26.74;58.39
79236;BME280;69062;47.460;18.812;2023-08-20T04:08:45;100535.59;;;26.72;58.90
79236;BME280;69062;47.460;18.812;2023-08-20T04:09:48;100548.16;;;26.73;58.88
79236;BME280;69062;47.460;18.812;2023-08-20T04:10:52;100542.88;;;26.72;58.42
79236;BME280;69062;47.460;18.812;2023-08-20T04:11:54;100539.31;;;26.71;58.46
79236;BME280;69062;47.460;18.812;2023-08-20T04:12:58;100543.72;;;26.72;58.36
79236;BME280;69062;47.460;18.812;2023-08-20T04:14:01;100545.75;;;26.70;58.26
79236;BME280;69062;47.460;18.812;2023-08-20T04:15:04;100546.44;;;26.72;58.67
79236;BME280;69062;47.460;18.812;2023-08-20T04:16:07;100545.59;;;26.72;58.38
79236;BME280;69062;47.460;18.812;2023-08-20T04:17:11;100547.44;;;26.71;58.52
79236;BME280;69062;47.460;18.812;2023-08-20T04:18:13;100548.47;;;26.70;58.15
79236;BME280;69062;47.460;18.812;2023-08-20T04:19:16;100550.34;;;26.70;58.53
79236;BME280;69062;47.460;18.812;2023-08-20T04:20:19;100546.78;;;26.69;58.39
79236;BME280;69062;47.460;18.812;2023-08-20T04:21:22;100545.94;;;26.69;58.50
79236;BME280;69062;47.460;18.812;2023-08-20T04:22:25;100549.66;;;26.67;58.82
79236;BME280;69062;47.460;18.812;2023-08-20T04:23:28;100547.81;;;26.68;58.78
79236;BME280;69062;47.460;18.812;2023-08-20T04:24:30;100551.53;;;26.67;58.39
79236;BME280;69062;47.460;18.812;2023-08-20T04:25:34;100548.81;;;26.67;58.45
79236;BME280;69062;47.460;18.812;2023-08-20T04:26:36;100544.44;;;26.66;58.77
79236;BME280;69062;47.460;18.812;2023-08-20T04:27:39;100550.84;;;26.65;58.70
79236;BME280;69062;47.460;18.812;2023-08-20T04:28:42;100547.28;;;26.64;58.68
79236;BME280;69062;47.460;18.812;2023-08-20T04:29:45;100544.56;;;26.64;58.54
79236;BME280;69062;47.460;18.812;2023-08-20T04:30:48;100549.16;;;26.64;58.67
79236;BME280;69062;47.460;18.812;2023-08-20T04:31:52;100554.56;;;26.64;58.70
79236;BME280;69062;47.460;18.812;2023-08-20T04:32:55;100553.72;;;26.63;58.29
79236;BME280;69062;47.460;18.812;2023-08-20T04:33:59;100561.84;;;26.63;58.77
79236;BME280;69062;47.460;18.812;2023-08-20T04:35:13;100554.75;;;26.62;58.75
79236;BME280;69062;47.460;18.812;2023-08-20T04:36:16;100563.06;;;26.61;58.92
79236;BME280;69062;47.460;18.812;2023-08-20T04:37:19;100562.03;;;26.62;58.92
79236;BME280;69062;47.460;18.812;2023-08-20T04:38:22;100562.03;;;26.62;58.96
79236;BME280;69062;47.460;18.812;2023-08-20T04:39:25;100563.91;;;26.61;59.00
79236;BME280;69062;47.460;18.812;2023-08-20T04:40:28;100565.75;;;26.61;58.80
79236;BME280;69062;47.460;18.812;2023-08-20T04:41:31;100563.91;;;26.61;58.60
79236;BME280;69062;47.460;18.812;2023-08-20T04:42:34;100557.81;;;26.59;58.81
79236;BME280;69062;47.460;18.812;2023-08-20T04:43:37;100559.50;;;26.60;58.97
79236;BME280;69062;47.460;18.812;2023-08-20T04:44:40;100565.75;;;26.61;59.15
79236;BME280;69062;47.460;18.812;2023-08-20T04:45:43;100564.06;;;26.60;58.77
79236;BME280;69062;47.460;18.812;2023-08-20T04:46:49;100565.94;;;26.59;58.79
79236;BME280;69062;47.460;18.812;2023-08-20T04:47:53;100566.78;;;26.60;58.73
79236;BME280;69062;47.460;18.812;2023-08-20T04:48:56;100570.50;;;26.59;59.11
79236;BME280;69062;47.460;18.812;2023-08-20T04:49:59;100573.22;;;26.59;59.09
79236;BME280;69062;47.460;18.812;2023-08-20T04:51:02;100574.06;;;26.59;58.98
79236;BME280;69062;47.460;18.812;2023-08-20T04:52:04;100577.94;;;26.57;58.92
79236;BME280;69062;47.460;18.812;2023-08-20T04:53:07;100568.78;;;26.58;58.89
79236;BME280;69062;47.460;18.812;2023-08-20T04:54:10;100582.34;;;26.58;59.34
79236;BME280;69062;47.460;18.812;2023-08-20T04:55:14;100575.09;;;26.58;58.83
79236;BME280;69062;47.460;18.812;2023-08-20T04:56:27;100588.63;;;26.58;58.85
79236;BME280;69062;47.460;18.812;2023-08-20T04:57:31;100583.22;;;26.58;59.22
79236;BME280;69062;47.460;18.812;2023-08-20T04:58:34;100583.34;;;26.57;58.89
79236;BME280;69062;47.460;18.812;2023-08-20T04:59:37;100582.50;;;26.56;59.11
79236;BME280;69062;47.460;18.812;2023-08-20T05:00:58;100586.91;;;26.57;58.75
79236;BME280;69062;47.460;18.812;2023-08-20T05:02:01;100578.97;;;26.56;59.00
79236;BME280;69062;47.460;18.812;2023-08-20T05:03:19;100583.34;;;26.57;58.85
79236;BME280;69062;47.460;18.812;2023-08-20T05:04:22;100586.06;;;26.57;59.00
79236;BME280;69062;47.460;18.812;2023-08-20T05:05:25;100581.66;;;26.56;59.04
79236;BME280;69062;47.460;18.812;2023-08-20T05:06:28;100582.50;;;26.56;58.86
79236;BME280;69062;47.460;18.812;2023-08-20T05:07:31;100581.66;;;26.56;58.99
79236;BME280;69062;47.460;18.812;2023-08-20T05:08:34;100584.38;;;26.56;59.04
79236;BME280;69062;47.460;18.812;2023-08-20T05:09:37;100586.06;;;26.57;59.20
79236;BME280;69062;47.460;18.812;2023-08-20T05:10:41;100581.66;;;26.56;59.03
79236;BME280;69062;47.460;18.812;2023-08-20T05:11:44;100581.00;;;26.54;59.08
79236;BME280;69062;47.460;18.812;2023-08-20T05:12:47;100584.38;;;26.56;59.00
79236;BME280;69062;47.460;18.812;2023-08-20T05:13:51;100580.81;;;26.55;59.25
79236;BME280;69062;47.460;18.812;2023-08-20T05:14:54;100583.53;;;26.55;59.71
79236;BME280;69062;47.460;18.812;2023-08-20T05:15:56;100581.66;;;26.56;59.15
79236;BME280;69062;47.460;18.812;2023-08-20T05:17:00;100577.28;;;26.55;58.89
79236;BME280;69062;47.460;18.812;2023-08-20T05:18:03;100585.41;;;26.55;59.46
79236;BME280;69062;47.460;18.812;2023-08-20T05:19:06;100578.13;;;26.55;59.26
79236;BME280;69062;47.460;18.812;2023-08-20T05:20:09;100584.38;;;26.56;58.86
79236;BME280;69062;47.460;18.812;2023-08-20T05:21:12;100575.41;;;26.55;59.41
79236;BME280;69062;47.460;18.812;2023-08-20T05:22:16;100584.38;;;26.56;59.49
79236;BME280;69062;47.460;18.812;2023-08-20T05:23:18;100579.97;;;26.55;59.42
79236;BME280;69062;47.460;18.812;2023-08-20T05:24:22;100581.66;;;26.56;59.49
79236;BME280;69062;47.460;18.812;2023-08-20T05:25:25;100583.53;;;26.55;59.42
79236;BME280;69062;47.460;18.812;2023-08-20T05:26:27;100578.97;;;26.56;59.44
79236;BME280;69062;47.460;18.812;2023-08-20T05:27:30;100579.97;;;26.55;59.82
79236;BME280;69062;47.460;18.812;2023-08-20T05:28:34;100575.41;;;26.55;59.69
79236;BME280;69062;47.460;18.812;2023-08-20T05:29:36;100575.41;;;26.55;60.16
79236;BME280;69062;47.460;18.812;2023-08-20T05:30:39;100573.53;;;26.56;60.46
79236;BME280;69062;47.460;18.812;2023-08-20T05:31:42;100570.00;;;26.55;60.52
79236;BME280;69062;47.460;18.812;2023-08-20T05:32:45;100574.38;;;26.56;60.75
79236;BME280;69062;47.460;18.812;2023-08-20T05:33:48;100583.34;;;26.57;60.67
79236;BME280;69062;47.460;18.812;2023-08-20T05:34:51;100583.34;;;26.57;61.06